Time;durP1;ratioP1;P1;durP2;ratioP2;P2;SDS_P1;SDS_P2;PMS_P1;PMS_P2;Temp;Humidity;BMP_temperature;BMP_pressure;BME280_temperature;BME280_humidity;BME280_pressure;Samples;Min_cycle;Max_cycle;Signal;HPM_P1;HPM_P2
2023/08/30 00:01:28;;;;;;;3.10;2.80;;;18.70;80.70;;;21.34;52.88;100719.72;5028177;28;20194;-67
2023/08/30 00:03:55;;;;;;;3.60;2.83;;;18.60;81.30;;;21.39;53.10;100714.47;5034558;28;20713;-69
2023/08/30 00:06:22;;;;;;;3.87;3.30;;;18.60;81.30;;;21.43;53.03;100708.34;5034088;28;20210;-66
2023/08/30 00:08:49;;;;;;;3.57;3.27;;;18.70;81.20;;;21.42;52.80;100706.72;5034312;28;20274;-66
2023/08/30 00:11:17;;;;;;;3.07;2.87;;;18.60;81.10;;;21.37;52.79;100698.63;5034130;28;20289;-66
2023/08/30 00:13:45;;;;;;;4.23;3.10;;;18.60;81.00;;;21.33;53.12;100696.69;5033021;28;20244;-66
2023/08/30 00:16:12;;;;;;;2.73;2.53;;;18.60;81.20;;;21.29;52.51;100699.06;5013480;28;20219;-67
2023/08/30 00:18:39;;;;;;;3.50;3.20;;;18.60;81.20;;;21.31;53.19;100699.63;5014259;28;20599;-66
2023/08/30 00:21:06;;;;;;;3.47;3.27;;;18.60;81.40;;;21.28;52.60;100700.09;5014601;28;20191;-66
2023/08/30 00:23:33;;;;;;;3.87;3.07;;;18.60;81.30;;;21.26;52.96;100704.88;5017595;28;20269;-66
2023/08/30 00:26:00;;;;;;;3.57;3.27;;;18.60;81.20;;;21.25;53.28;100700.56;5028848;28;20221;-66
2023/08/30 00:28:29;;;;;;;3.67;3.37;;;18.60;81.20;;;21.21;52.88;100699.47;5028392;28;20202;-68
2023/08/30 00:30:56;;;;;;;3.50;3.20;;;18.50;81.50;;;21.15;53.25;100700.44;5013877;28;20202;-66
2023/08/30 00:33:23;;;;;;;3.73;3.43;;;18.50;81.40;;;21.11;53.20;100696.63;5014215;28;20191;-66
2023/08/30 00:35:57;;;;;;;3.90;3.60;;;18.40;81.40;;;21.07;53.13;100697.34;5013860;28;20215;-66
2023/08/30 00:38:25;;;;;;;3.50;3.27;;;18.40;81.50;;;21.04;53.47;100687.91;5013978;28;20670;-66
2023/08/30 00:40:53;;;;;;;3.70;3.40;;;18.40;81.50;;;21.04;53.04;100681.78;5014227;28;20187;-66
2023/08/30 00:43:20;;;;;;;3.73;3.43;;;18.40;81.70;;;21.03;53.03;100686.31;5013914;28;20573;-65
2023/08/30 00:45:49;;;;;;;2.93;2.70;;;18.40;81.60;;;21.07;53.69;100687.47;5013246;28;20725;-66
2023/08/30 00:48:20;;;;;;;2.90;2.63;;;18.40;82.30;;;21.14;53.31;100679.25;5014467;28;20208;-66
2023/08/30 00:50:47;;;;;;;2.90;2.70;;;18.40;82.10;;;21.19;53.00;100680.16;5013968;28;20675;-66
2023/08/30 00:53:15;;;;;;;3.57;2.90;;;18.40;82.10;;;21.26;53.33;100678.13;5014177;28;20199;-66
2023/08/30 00:55:43;;;;;;;3.30;3.10;;;18.40;81.90;;;21.27;52.66;100677.06;5013497;28;20254;-66
2023/08/30 00:58:11;;;;;;;3.40;3.03;;;18.50;81.60;;;21.28;52.71;100683.22;5013705;28;20582;-66
2023/08/30 01:00:39;;;;;;;3.17;2.87;;;18.50;81.30;;;21.25;52.85;100689.06;5013737;28;20201;-66
2023/08/30 01:03:07;;;;;;;3.57;3.27;;;18.50;81.10;;;21.19;52.63;100685.50;5012743;28;20198;-66
2023/08/30 01:05:35;;;;;;;4.10;3.70;;;18.40;80.90;;;21.16;52.84;100686.00;5013780;28;20238;-66
2023/08/30 01:08:02;;;;;;;4.00;3.70;;;18.40;81.20;;;21.12;52.78;100684.03;5017757;28;20198;-66
2023/08/30 01:10:47;;;;;;;3.23;3.03;;;18.40;81.20;;;21.06;52.72;100680.47;5018012;28;20195;-66
2023/08/30 01:13:20;;;;;;;3.40;3.20;;;18.40;81.20;;;21.07;52.83;100671.41;4998567;28;20190;-66
2023/08/30 01:15:49;;;;;;;4.10;3.17;;;18.30;81.40;;;21.11;53.05;100672.53;4999491;28;20246;-66
2023/08/30 01:18:20;;;;;;;4.37;3.60;;;18.30;81.30;;;21.11;52.83;100671.72;5012756;28;20199;-66
2023/08/30 01:20:50;;;;;;;4.23;3.77;;;18.30;81.20;;;21.05;53.05;100678.06;5019159;28;20277;-66
2023/08/30 01:23:36;;;;;;;4.03;3.73;;;18.30;81.10;;;20.94;52.94;100669.03;5018852;28;20179;-66
2023/08/30 01:26:11;;;;;;;9.13;3.70;;;18.20;81.00;;;20.87;53.17;100671.06;5032357;28;20353;-66
2023/08/30 01:28:40;;;;;;;4.37;3.93;;;18.20;81.10;;;20.83;53.25;100667.22;5037390;28;20530;-66
2023/08/30 01:31:09;;;;;;;4.17;3.87;;;18.10;81.10;;;20.75;52.88;100668.44;5037177;28;20245;-67
2023/08/30 01:33:38;;;;;;;3.90;3.60;;;18.10;81.30;;;20.69;53.43;100672.09;5034490;28;20248;-66
2023/08/30 01:36:06;;;;;;;4.17;3.87;;;18.10;81.50;;;20.65;53.36;100670.16;5017058;28;20219;-66
2023/08/30 01:38:35;;;;;;;4.67;4.13;;;18.00;81.60;;;20.64;53.69;100665.84;5017207;28;20274;-66
2023/08/30 01:41:04;;;;;;;4.40;3.63;;;17.90;81.70;;;20.64;53.59;100660.50;5017264;28;20199;-66
2023/08/30 01:43:33;;;;;;;3.27;3.07;;;17.90;81.80;;;20.68;53.13;100667.00;5017700;28;20217;-66
2023/08/30 01:46:04;;;;;;;4.33;4.03;;;17.90;81.80;;;20.72;53.67;100662.78;5012229;28;20722;-66
2023/08/30 01:48:33;;;;;;;4.00;3.67;;;17.90;81.80;;;20.77;53.15;100660.19;5012694;28;20268;-67
2023/08/30 01:51:01;;;;;;;4.03;3.73;;;18.00;82.20;;;20.80;52.92;100659.72;5024871;28;20686;-66
2023/08/30 01:53:30;;;;;;;3.13;2.93;;;18.00;81.80;;;20.82;53.09;100668.31;5017042;28;20667;-65
2023/08/30 01:55:57;;;;;;;3.47;3.17;;;18.00;82.00;;;20.88;53.45;100667.31;5016224;28;20235;-68
2023/08/30 01:58:24;;;;;;;4.23;3.83;;;18.00;82.10;;;20.97;53.14;100673.88;5016867;28;20251;-66
2023/08/30 02:00:52;;;;;;;3.67;3.40;;;18.10;81.90;;;20.99;52.47;100670.97;5017106;28;20191;-66
2023/08/30 02:03:20;;;;;;;3.30;3.10;;;18.10;81.60;;;21.00;52.75;100668.06;5017119;28;20283;-66
2023/08/30 02:06:02;;;;;;;4.10;3.80;;;18.20;81.30;;;20.96;52.55;100664.25;5016561;28;20559;-66
2023/08/30 02:08:39;;;;;;;4.33;3.87;;;18.20;80.90;;;20.90;52.71;100659.84;5016664;28;20237;-66
2023/08/30 02:11:19;;;;;;;4.47;3.50;;;18.10;80.70;;;20.86;52.28;100664.91;5016653;28;20670;-65
2023/08/30 02:13:47;;;;;;;4.03;3.67;;;18.10;80.80;;;20.85;52.63;100657.09;5017086;28;20277;-66
2023/08/30 02:16:16;;;;;;;4.00;3.70;;;18.10;80.90;;;20.83;52.79;100664.56;5015295;28;20231;-66
2023/08/30 02:18:46;;;;;;;4.00;3.70;;;18.10;80.80;;;20.78;52.63;100659.13;5015602;28;20309;-67
2023/08/30 02:21:13;;;;;;;4.47;4.07;;;18.10;80.80;;;20.75;52.40;100667.66;5016371;28;20205;-66
2023/08/30 02:23:40;;;;;;;4.07;3.67;;;18.00;80.80;;;20.70;53.17;100670.25;5020274;28;20191;-66
2023/08/30 02:26:07;;;;;;;4.23;3.90;;;18.00;81.10;;;20.67;53.27;100660.03;5030936;28;20297;-66
2023/08/30 02:28:34;;;;;;;4.93;3.73;;;17.90;81.10;;;20.66;52.93;100669.09;5036121;28;20226;-66
2023/08/30 02:31:01;;;;;;;5.27;4.33;;;17.90;81.20;;;20.65;53.27;100662.13;5034905;28;20289;-67
2023/08/30 02:33:29;;;;;;;4.27;3.97;;;17.90;81.40;;;20.64;53.21;100660.50;5035847;28;20738;-66
2023/08/30 02:35:57;;;;;;;3.90;3.60;;;17.90;81.20;;;20.62;53.13;100662.59;5036940;28;20218;-66
2023/08/30 02:38:24;;;;;;;5.20;4.80;;;17.90;81.20;;;20.59;53.35;100663.91;5023073;28;20230;-66
2023/08/30 02:40:51;;;;;;;5.07;4.53;;;17.90;81.30;;;20.58;52.88;100658.81;5016545;28;20219;-66
2023/08/30 02:43:18;;;;;;;5.13;4.73;;;17.90;81.50;;;20.55;53.31;100652.06;5016250;28;20218;-66
2023/08/30 02:45:45;;;;;;;5.47;5.00;;;17.80;81.30;;;20.54;53.50;100655.00;5015649;28;20353;-66
2023/08/30 02:48:13;;;;;;;5.23;4.70;;;17.80;81.50;;;20.53;53.54;100650.69;5015453;28;20222;-68
2023/08/30 02:50:40;;;;;;;5.20;4.80;;;17.80;81.50;;;20.53;53.31;100653.38;5015732;28;20199;-66
2023/08/30 02:53:09;;;;;;;5.20;4.80;;;17.80;81.70;;;20.55;53.51;100648.59;5015351;28;20203;-66
2023/08/30 02:55:36;;;;;;;5.73;5.23;;;17.80;81.70;;;20.59;53.25;100647.03;5015398;28;20223;-66
2023/08/30 02:58:03;;;;;;;5.77;5.10;;;17.80;81.90;;;20.63;53.69;100648.19;5015813;28;20278;-66
2023/08/30 03:00:30;;;;;;;6.50;5.90;;;17.80;82.00;;;20.63;53.25;100649.00;5015948;28;20195;-68
2023/08/30 03:02:57;;;;;;;6.67;6.00;;;17.80;82.00;;;20.57;53.85;100655.31;5016023;28;20219;-67
2023/08/30 03:05:25;;;;;;;6.43;5.87;;;17.80;82.20;;;20.52;53.90;100649.88;5015648;28;20218;-68
2023/08/30 03:07:53;;;;;;;6.37;5.77;;;17.80;82.30;;;20.50;53.60;100651.16;5015426;28;20226;-68
2023/08/30 03:10:21;;;;;;;7.50;6.80;;;17.80;82.60;;;20.45;54.07;100640.38;5015566;28;20385;-67
2023/08/30 03:12:48;;;;;;;7.37;6.67;;;17.70;82.70;;;20.43;54.49;100642.50;5015458;28;20273;-68
2023/08/30 03:15:15;;;;;;;8.00;7.30;;;17.70;82.70;;;20.41;54.24;100639.25;5015408;28;20206;-68
2023/08/30 03:17:42;;;;;;;7.37;6.77;;;17.70;83.00;;;20.40;54.18;100633.09;5014900;28;20219;-68
2023/08/30 03:20:10;;;;;;;7.87;7.10;;;17.70;83.20;;;20.40;54.05;100635.75;5014221;28;20191;-68
2023/08/30 03:22:37;;;;;;;7.60;6.83;;;17.70;83.20;;;20.42;54.61;100641.66;5015059;28;20227;-67
2023/08/30 03:25:06;;;;;;;8.40;7.70;;;17.70;83.20;;;20.37;54.40;100649.63;5030803;28;20211;-68
2023/08/30 03:27:35;;;;;;;8.50;7.80;;;17.70;83.60;;;20.34;54.26;100644.75;5030516;28;20721;-67
2023/08/30 03:30:02;;;;;;;8.30;7.50;;;17.60;83.40;;;20.33;54.37;100639.63;5025936;28;20200;-68
2023/08/30 03:32:32;;;;;;;9.40;7.93;;;17.60;83.50;;;20.30;54.53;100642.81;5015131;28;20715;-67
2023/08/30 03:34:59;;;;;;;8.40;7.70;;;17.60;83.70;;;20.27;55.08;100643.28;5015018;28;20215;-68
2023/08/30 03:37:26;;;;;;;8.60;7.80;;;17.60;83.90;;;20.21;55.08;100634.31;5015094;28;20226;-67
2023/08/30 03:39:53;;;;;;;8.90;8.10;;;17.50;84.00;;;20.13;55.23;100634.72;5015216;28;20277;-67
2023/08/30 03:42:20;;;;;;;10.07;9.07;;;17.50;84.20;;;20.05;55.43;100633.25;5014700;28;20274;-67
2023/08/30 03:44:49;;;;;;;9.90;8.97;;;17.40;84.30;;;20.03;55.91;100626.50;5014514;28;20274;-67
2023/08/30 03:47:16;;;;;;;8.57;7.87;;;17.40;84.60;;;19.99;55.65;100625.38;5014847;28;20252;-67
2023/08/30 03:49:44;;;;;;;9.47;8.67;;;17.40;84.70;;;19.96;56.14;100628.50;5015048;28;20274;-68
2023/08/30 03:52:11;;;;;;;9.20;8.40;;;17.30;85.00;;;19.91;56.02;100623.88;5014740;28;20218;-67
2023/08/30 03:54:38;;;;;;;10.57;9.37;;;17.30;85.20;;;19.89;56.56;100636.69;5013999;28;20270;-68
2023/08/30 03:57:05;;;;;;;8.87;8.17;;;17.20;85.40;;;19.87;56.27;100628.06;5014757;28;20278;-67
2023/08/30 03:59:33;;;;;;;10.97;9.93;;;17.20;85.20;;;19.84;56.70;100623.22;5014616;28;20218;-67
2023/08/30 04:02:01;;;;;;;10.13;9.23;;;17.20;85.70;;;19.82;56.80;100619.97;5015032;28;20191;-68
2023/08/30 04:04:28;;;;;;;10.17;9.23;;;17.20;85.90;;;19.76;57.04;100623.59;5015310;28;20226;-67
2023/08/30 04:06:55;;;;;;;9.47;8.57;;;17.20;86.10;;;19.75;56.47;100611.28;5014781;28;20261;-67
2023/08/30 04:09:22;;;;;;;9.80;9.00;;;17.20;86.00;;;19.76;57.20;100615.56;5014375;28;20221;-68
2023/08/30 04:11:49;;;;;;;10.43;9.43;;;17.10;86.20;;;19.76;56.93;100620.91;5014204;28;20194;-67
2023/08/30 04:14:16;;;;;;;9.97;8.97;;;17.10;86.50;;;19.77;57.14;100611.84;5014188;28;20227;-70
2023/08/30 04:16:43;;;;;;;10.37;9.47;;;17.10;86.40;;;19.76;56.76;100615.56;5014533;28;20219;-68
2023/08/30 04:19:11;;;;;;;10.07;9.07;;;17.10;86.60;;;19.73;56.76;100616.03;5014429;28;20560;-67
2023/08/30 04:21:38;;;;;;;9.63;8.83;;;17.10;86.60;;;19.72;57.37;100613.63;5014349;28;20226;-68
2023/08/30 04:24:06;;;;;;;11.27;10.27;;;17.10;86.70;;;19.71;57.10;100615.47;5022353;28;20273;-68
2023/08/30 04:26:33;;;;;;;11.43;10.43;;;17.10;86.90;;;19.70;57.42;100607.69;5021672;28;20225;-68
2023/08/30 04:29:03;;;;;;;11.00;9.90;;;17.00;86.80;;;19.69;57.11;100609.56;5014260;28;20714;-68
2023/08/30 04:31:30;;;;;;;8.60;7.90;;;17.00;86.70;;;19.72;57.15;100603.75;5014719;28;20567;-68
2023/08/30 04:33:57;;;;;;;12.27;10.70;;;17.00;86.90;;;19.74;57.35;100598.97;5014022;28;20561;-66
2023/08/30 04:36:25;;;;;;;10.80;9.80;;;17.00;87.10;;;19.76;57.31;100604.88;5012473;28;20322;-67
2023/08/30 04:38:53;;;;;;;9.60;8.57;;;17.00;87.20;;;19.76;57.44;100596.88;5013701;28;20340;-66
2023/08/30 04:41:29;;;;;;;9.37;8.57;;;17.10;87.10;;;19.78;57.16;100602.00;5013745;28;20237;-67
2023/08/30 04:43:56;;;;;;;12.13;10.87;;;17.10;87.40;;;19.82;57.42;100601.28;5012905;28;20218;-66
2023/08/30 04:46:23;;;;;;;10.23;9.37;;;17.10;87.20;;;19.86;57.43;100599.75;4993914;28;20211;-70
2023/08/30 04:48:50;;;;;;;11.53;10.43;;;17.10;87.10;;;19.89;57.20;100599.28;4994312;28;20274;-68
2023/08/30 04:51:17;;;;;;;10.90;9.90;;;17.10;87.00;;;19.92;57.12;100598.78;4993989;28;20191;-68
2023/08/30 04:53:46;;;;;;;12.07;10.87;;;17.20;87.00;;;19.93;56.60;100595.06;4994874;28;20203;-68
2023/08/30 04:56:14;;;;;;;10.70;9.80;;;17.20;87.00;;;19.89;56.70;100593.13;5013330;28;20246;-67
2023/08/30 04:58:41;;;;;;;11.23;10.13;;;17.20;86.80;;;19.85;57.19;100591.97;5013625;28;20202;-67
2023/08/30 05:01:09;;;;;;;11.03;10.03;;;17.20;87.00;;;19.81;57.17;100593.47;5013804;28;20219;-67
2023/08/30 05:03:36;;;;;;;10.57;9.70;;;17.10;86.80;;;19.79;57.34;100588.38;5029411;28;20295;-68
2023/08/30 05:06:03;;;;;;;11.80;10.77;;;17.10;87.00;;;19.79;56.94;100577.69;5013165;28;20215;-68
2023/08/30 05:08:32;;;;;;;11.57;10.43;;;17.10;87.10;;;19.77;57.57;100577.13;5013191;28;20223;-68
2023/08/30 05:11:00;;;;;;;11.57;10.37;;;17.10;87.20;;;19.76;57.25;100583.50;5013751;28;20211;-67
2023/08/30 05:13:27;;;;;;;10.27;9.37;;;17.10;87.30;;;19.80;57.56;100590.00;5012497;28;20286;-68
2023/08/30 05:15:54;;;;;;;12.00;10.97;;;17.10;87.40;;;19.84;57.38;100579.66;5013216;28;20714;-68
2023/08/30 05:18:21;;;;;;;12.00;11.00;;;17.10;87.40;;;19.85;57.36;100586.63;5013533;28;20313;-68
2023/08/30 05:20:48;;;;;;;12.80;11.07;;;17.10;87.40;;;19.81;57.45;100583.63;5013293;28;20497;-68
2023/08/30 05:23:15;;;;;;;12.40;10.83;;;17.10;87.40;;;19.79;57.28;100583.03;5014366;28;20199;-67
2023/08/30 05:25:42;;;;;;;11.87;10.77;;;17.10;87.40;;;19.77;57.52;100585.16;5027748;28;20211;-67
2023/08/30 05:28:10;;;;;;;11.87;10.70;;;17.10;87.50;;;19.72;57.46;100576.22;5033308;28;20219;-68
2023/08/30 05:30:43;;;;;;;13.90;11.50;;;17.10;87.70;;;19.71;57.43;100579.94;5032825;28;20209;-70
2023/08/30 05:33:10;;;;;;;16.27;11.27;;;17.00;87.60;;;19.69;57.84;100577.50;5033254;28;20191;-68
2023/08/30 05:35:37;;;;;;;11.70;10.63;;;17.00;87.70;;;19.64;58.01;100576.59;5033333;28;20653;-68
2023/08/30 05:38:04;;;;;;;12.57;11.27;;;17.00;87.90;;;19.65;57.82;100580.88;5012623;28;20225;-68
2023/08/30 05:40:31;;;;;;;12.33;11.33;;;17.00;88.10;;;19.64;58.19;100580.06;5013470;28;20191;-68
2023/08/30 05:42:58;;;;;;;12.30;11.17;;;16.90;88.30;;;19.63;58.34;100573.13;5013182;28;20275;-68
2023/08/30 05:45:26;;;;;;;12.97;11.83;;;17.00;88.40;;;19.63;57.87;100572.31;4999983;28;20254;-69
2023/08/30 05:47:53;;;;;;;13.20;12.00;;;16.90;88.20;;;19.62;58.10;100578.69;4993161;28;20215;-67
2023/08/30 05:50:21;;;;;;;13.20;11.90;;;16.90;89.10;;;19.62;58.26;100579.50;4999053;28;20309;-67
2023/08/30 05:52:48;;;;;;;12.63;11.27;;;16.90;88.50;;;19.64;58.15;100571.25;5013185;28;20247;-69
2023/08/30 05:55:15;;;;;;;13.70;12.40;;;16.90;88.50;;;19.65;58.32;100564.88;5016126;28;20688;-68
2023/08/30 05:57:42;;;;;;;11.97;10.83;;;16.90;88.60;;;19.67;57.87;100568.91;5016761;28;20226;-68
2023/08/30 06:00:12;;;;;;;12.47;11.27;;;16.90;88.60;;;19.68;58.29;100569.75;5016387;28;20286;-68
2023/08/30 06:02:41;;;;;;;13.33;9.80;;;16.90;88.70;;;19.74;58.23;100574.94;5016705;28;20195;-68
2023/08/30 06:05:09;;;;;;;11.33;10.10;;;17.00;89.10;;;19.87;58.31;100568.50;5015685;28;20775;-67
2023/08/30 06:07:36;;;;;;;14.03;12.63;;;17.00;89.10;;;20.02;58.04;100571.44;5015975;28;20618;-69
2023/08/30 06:10:04;;;;;;;13.17;11.07;;;17.20;88.90;;;20.10;57.73;100569.19;5015336;28;20242;-68
2023/08/30 06:12:31;;;;;;;12.37;10.67;;;17.20;88.40;;;20.19;57.09;100573.09;5016306;28;20211;-69
2023/08/30 06:14:58;;;;;;;13.30;12.10;;;17.30;88.20;;;20.23;57.17;100568.09;5016292;28;20207;-67
2023/08/30 06:17:25;;;;;;;12.80;11.60;;;17.30;88.00;;;20.29;56.68;100563.63;5016876;28;20339;-67
2023/08/30 06:19:54;;;;;;;13.70;12.00;;;17.40;87.90;;;20.33;56.96;100567.44;5031564;28;20686;-68
2023/08/30 06:22:21;;;;;;;13.13;11.87;;;17.40;87.70;;;20.32;56.69;100552.47;5016226;28;20222;-66
2023/08/30 06:24:48;;;;;;;13.17;11.97;;;17.50;87.50;;;20.32;56.63;100555.97;5015982;28;20213;-69
2023/08/30 06:27:15;;;;;;;13.17;11.97;;;17.50;87.50;;;20.33;56.35;100554.06;5015934;28;20195;-67
2023/08/30 06:29:42;;;;;;;14.67;12.93;;;17.50;87.40;;;20.33;56.68;100557.56;5015878;28;20224;-70
2023/08/30 06:32:09;;;;;;;13.67;12.47;;;17.50;87.30;;;20.33;56.08;100556.75;5016103;28;20199;-68
2023/08/30 06:34:36;;;;;;;14.73;13.43;;;17.50;87.00;;;20.32;56.17;100557.81;5023662;28;20199;-68
2023/08/30 06:37:05;;;;;;;20.17;13.07;;;17.50;87.00;;;20.30;56.53;100549.22;5035255;28;20210;-67
2023/08/30 06:39:34;;;;;;;14.60;13.17;;;17.50;87.10;;;20.30;56.80;100557.25;5035794;28;20191;-67
2023/08/30 06:42:01;;;;;;;15.53;12.50;;;17.50;87.30;;;20.27;57.02;100552.38;5035142;28;20244;-67
2023/08/30 06:44:29;;;;;;;14.13;12.70;;;17.50;87.30;;;20.29;56.92;100552.94;5030842;28;20253;-68
2023/08/30 06:46:57;;;;;;;13.97;12.03;;;17.50;87.20;;;20.33;56.32;100551.41;5015246;28;20194;-68
2023/08/30 06:49:28;;;;;;;17.80;13.23;;;17.50;87.20;;;20.36;56.77;100548.25;5016148;28;20255;-68
2023/08/30 06:51:55;;;;;;;13.93;12.53;;;17.50;87.00;;;20.33;56.82;100546.88;5015926;28;20195;-69
2023/08/30 06:54:23;;;;;;;19.00;12.67;;;17.50;86.90;;;20.34;56.84;100537.81;5015714;28;20218;-67
2023/08/30 06:56:58;;;;;;;14.20;12.70;;;17.50;87.00;;;20.34;56.13;100531.66;5015111;28;20225;-67
2023/08/30 06:59:25;;;;;;;14.00;12.77;;;17.60;86.90;;;20.35;56.31;100539.41;5015720;28;20211;-66
2023/08/30 07:01:53;;;;;;;14.27;12.83;;;17.60;86.90;;;20.39;56.45;100537.06;5015127;28;20222;-67
2023/08/30 07:04:20;;;;;;;13.53;12.27;;;17.60;86.80;;;20.47;55.95;100536.66;5015119;28;20205;-66
2023/08/30 07:06:47;;;;;;;13.73;12.13;;;17.60;86.70;;;20.53;56.18;100547.19;5015518;28;20204;-65
2023/08/30 07:09:14;;;;;;;13.93;11.13;;;17.60;86.40;;;20.59;55.59;100542.72;5015242;28;20237;-68
2023/08/30 07:11:47;;;;;;;13.07;11.80;;;17.70;86.40;;;20.61;55.95;100537.97;5015590;28;20243;-68
2023/08/30 07:14:14;;;;;;;13.73;12.33;;;17.70;86.20;;;20.65;55.92;100533.72;5014093;28;20203;-66
2023/08/30 07:16:41;;;;;;;12.87;11.77;;;17.80;86.30;;;20.71;55.86;100543.44;5016545;28;20211;-68
2023/08/30 07:19:09;;;;;;;12.07;10.87;;;17.80;86.30;;;20.86;55.52;100541.00;5017370;28;20265;-67
2023/08/30 07:21:38;;;;;;;11.53;10.50;;;17.90;86.30;;;21.09;54.83;100538.13;5014301;28;20195;-67
2023/08/30 07:24:07;;;;;;;11.93;10.73;;;18.00;86.30;;;21.34;54.25;100538.44;5022905;28;20215;-66
2023/08/30 07:26:34;;;;;;;10.40;9.37;;;18.20;85.50;;;21.57;54.18;100543.53;5029556;28;20705;-66
2023/08/30 07:29:06;;;;;;;11.83;10.63;;;18.30;85.00;;;21.78;52.84;100533.81;5023203;28;20274;-67
2023/08/30 07:31:33;;;;;;;12.40;11.13;;;18.50;83.80;;;21.84;52.61;100532.84;5028737;28;20658;-68
2023/08/30 07:34:00;;;;;;;10.57;9.43;;;18.60;82.90;;;21.93;51.97;100535.88;5016916;28;20278;-68
2023/08/30 07:36:28;;;;;;;11.53;10.33;;;18.80;82.70;;;22.07;51.76;100531.72;5013938;28;20219;-66
2023/08/30 07:39:12;;;;;;;11.90;10.80;;;18.80;82.00;;;22.19;51.39;100535.03;5014694;28;20194;-68
2023/08/30 07:41:39;;;;;;;10.87;9.77;;;19.00;81.40;;;22.38;50.93;100532.78;5013648;28;20238;-66
2023/08/30 07:44:08;;;;;;;9.57;8.67;;;19.10;81.20;;;22.71;50.43;100543.22;5005453;28;20231;-68
2023/08/30 07:46:35;;;;;;;10.47;9.57;;;19.30;81.00;;;23.02;49.36;100538.84;5013834;28;20216;-67
2023/08/30 07:49:03;;;;;;;10.90;8.87;;;19.50;79.70;;;23.25;48.79;100541.13;5014032;28;20254;-67
2023/08/30 07:51:30;;;;;;;11.20;8.47;;;19.70;78.90;;;23.55;48.16;100544.75;5014486;28;20286;-67
2023/08/30 07:53:57;;;;;;;7.20;6.67;;;20.00;78.00;;;23.80;46.58;100541.28;5014239;28;20299;-68
2023/08/30 07:56:24;;;;;;;9.10;8.17;;;20.20;76.30;;;23.95;46.18;100532.44;5013541;28;20309;-67
2023/08/30 07:58:51;;;;;;;8.23;7.43;;;20.40;75.10;;;24.21;46.07;100534.09;5013742;28;20316;-67
2023/08/30 08:01:19;;;;;;;8.67;7.77;;;20.60;75.30;;;24.71;45.52;100538.63;5015398;28;20245;-68
2023/08/30 08:03:47;;;;;;;9.03;8.13;;;20.90;74.80;;;25.02;43.74;100534.00;5012926;28;20551;-67
2023/08/30 08:06:32;;;;;;;8.43;7.73;;;21.20;73.00;;;25.16;42.58;100549.31;5013995;28;20294;-67
2023/08/30 08:09:01;;;;;;;8.23;7.43;;;21.40;71.50;;;25.41;42.86;100529.53;5014435;28;20195;-68
2023/08/30 08:11:28;;;;;;;11.07;6.60;;;21.60;71.80;;;25.77;42.78;100538.25;5014048;28;20214;-68
2023/08/30 08:13:55;;;;;;;6.93;6.20;;;21.80;71.50;;;26.20;42.13;100532.00;5013564;28;20222;-67
2023/08/30 08:16:24;;;;;;;7.07;6.47;;;22.00;71.00;;;26.62;38.44;100534.88;5012982;28;20699;-67
2023/08/30 08:18:51;;;;;;;7.43;6.80;;;22.20;66.60;;;26.58;38.68;100539.22;5013384;28;20219;-67
2023/08/30 08:21:19;;;;;;;7.93;6.63;;;22.40;65.50;;;26.55;39.25;100544.41;5014111;28;20265;-66
2023/08/30 08:23:49;;;;;;;7.47;6.77;;;22.60;66.00;;;26.66;38.31;100541.31;5013996;28;20282;-68
2023/08/30 08:26:16;;;;;;;7.00;6.30;;;22.70;65.00;;;26.92;38.05;100538.38;5013678;28;20241;-66
2023/08/30 08:28:43;;;;;;;7.53;6.83;;;22.80;64.10;;;27.15;37.17;100532.13;5014009;28;20661;-68
2023/08/30 08:31:11;;;;;;;7.60;6.73;;;23.00;63.10;;;27.35;37.00;100529.19;5016284;28;20222;-67
2023/08/30 08:33:40;;;;;;;7.80;7.00;;;23.20;62.70;;;27.43;36.49;100528.59;5015781;28;20274;-67
2023/08/30 08:36:07;;;;;;;7.03;6.33;;;23.30;61.90;;;27.45;35.68;100527.19;5013709;28;20306;-67
2023/08/30 08:38:34;;;;;;;7.83;6.47;;;23.30;60.20;;;27.45;35.94;100531.81;5013697;28;20225;-68
2023/08/30 08:41:06;;;;;;;7.30;6.70;;;23.40;60.40;;;27.53;36.04;100533.84;5013185;28;20194;-67
2023/08/30 08:43:35;;;;;;;6.20;5.50;;;23.40;60.20;;;27.91;35.71;100534.63;5013570;28;20237;-67
2023/08/30 08:46:06;;;;;;;6.80;6.20;;;23.70;60.70;;;28.32;34.83;100534.81;5012501;28;20278;-67
2023/08/30 08:48:43;;;;;;;7.07;6.17;;;23.90;59.10;;;28.45;34.14;100528.63;5013340;28;20262;-68
2023/08/30 08:51:10;;;;;;;7.10;6.40;;;24.10;58.50;;;28.69;33.66;100532.03;5013680;28;20183;-66
2023/08/30 08:53:38;;;;;;;6.47;5.83;;;24.20;57.70;;;28.60;32.71;100529.19;5013541;28;20195;-66
2023/08/30 08:56:08;;;;;;;6.63;6.13;;;24.30;56.10;;;27.95;33.17;100541.09;5013344;28;20685;-68
2023/08/30 08:58:38;;;;;;;6.90;5.60;;;24.20;55.20;;;27.38;34.39;100539.47;5011892;28;20545;-70
2023/08/30 09:01:06;;;;;;;5.27;4.77;;;24.10;55.90;;;27.04;35.26;100531.47;5013460;28;20639;-68
2023/08/30 09:03:43;;;;;;;7.33;4.73;;;23.90;56.60;;;26.95;35.94;100527.81;5013942;28;20190;-69
2023/08/30 09:06:10;;;;;;;6.30;4.97;;;23.70;57.40;;;27.05;35.70;100521.47;5011546;28;20222;-68
2023/08/30 09:08:37;;;;;;;5.77;4.80;;;23.60;57.40;;;27.32;35.16;100524.34;5013416;28;20215;-68
2023/08/30 09:11:04;;;;;;;6.50;5.80;;;23.60;57.30;;;27.56;33.47;100521.63;5013541;28;20210;-69
2023/08/30 09:13:31;;;;;;;6.40;5.80;;;23.60;55.50;;;27.60;33.27;100528.88;5013376;28;20580;-68
2023/08/30 09:15:59;;;;;;;6.00;5.13;;;23.60;55.30;;;27.83;33.50;100525.28;5013248;28;20230;-66
2023/08/30 09:18:27;;;;;;;6.20;5.70;;;23.80;55.80;;;28.12;33.19;100519.72;5011450;28;20203;-67
2023/08/30 09:21:06;;;;;;;6.50;5.50;;;23.90;55.20;;;28.29;32.92;100524.59;5013018;28;20900;-67
2023/08/30 09:23:34;;;;;;;5.80;5.30;;;24.10;54.70;;;28.47;32.42;100537.25;5012123;28;20669;-67
2023/08/30 09:26:02;;;;;;;6.17;5.60;;;24.30;55.10;;;28.88;31.92;100521.91;5014802;28;20211;-67
2023/08/30 09:28:29;;;;;;;5.27;4.77;;;24.40;54.50;;;29.11;31.87;100526.31;5035743;28;20270;-68
2023/08/30 09:31:00;;;;;;;5.60;5.10;;;24.70;54.50;;;29.22;32.25;100521.50;5024311;28;20293;-67
2023/08/30 09:33:47;;;;;;;6.13;5.53;;;24.80;54.40;;;29.37;30.34;100523.88;5017039;28;20191;-68
2023/08/30 09:36:16;;;;;;;5.93;5.27;;;24.90;51.80;;;29.20;31.00;100532.66;5012208;28;20757;-68
2023/08/30 09:38:49;;;;;;;6.40;5.80;;;25.00;51.60;;;29.10;31.17;100532.00;5015752;28;20215;-68
2023/08/30 09:41:17;;;;;;;7.57;6.00;;;25.00;51.80;;;28.99;31.50;100528.72;5016344;28;20640;-68
2023/08/30 09:43:44;;;;;;;6.50;5.90;;;25.00;52.20;;;28.65;31.72;100523.69;5016097;28;20218;-68
2023/08/30 09:46:12;;;;;;;8.70;6.40;;;24.90;52.30;;;28.18;32.45;100519.34;5014519;28;20302;-68
2023/08/30 09:48:40;;;;;;;6.17;5.57;;;24.60;52.50;;;28.26;33.07;100522.47;5016359;28;20203;-68
2023/08/30 09:51:10;;;;;;;8.37;5.33;;;24.60;53.80;;;28.83;32.48;100524.72;5014891;28;20717;-68
2023/08/30 09:53:45;;;;;;;8.30;7.50;;;24.70;54.50;;;28.95;31.56;100516.88;5015365;28;20195;-71
2023/08/30 09:56:32;;;;;;;7.30;6.60;;;24.70;53.30;;;28.54;32.83;100513.31;5013193;28;20227;-71
2023/08/30 09:59:03;;;;;;;8.17;7.30;;;24.80;53.40;;;28.08;33.03;100511.38;5015689;28;20211;-67
2023/08/30 10:01:30;;;;;;;8.80;8.00;;;24.70;52.90;;;27.61;34.05;100518.84;5022512;28;20195;-68
2023/08/30 10:03:58;;;;;;;8.67;7.77;;;24.50;53.60;;;27.13;34.65;100515.41;5016540;28;20206;-67
2023/08/30 10:06:27;;;;;;;9.50;8.63;;;24.20;54.10;;;26.65;35.66;100512.69;5014649;28;20230;-69
2023/08/30 10:08:58;;;;;;;10.33;9.40;;;23.90;55.10;;;26.28;36.84;100517.91;4996743;28;20234;-67
2023/08/30 10:11:28;;;;;;;12.40;9.43;;;23.60;56.10;;;26.07;37.47;100516.44;5000146;28;20198;-68
2023/08/30 10:13:57;;;;;;;11.00;9.60;;;23.40;57.00;;;25.92;37.42;100505.75;5011367;28;20282;-67